createdAt,value
2022-10-22T00:00:41.309Z,8.30
2022-10-22T00:03:08.364Z,9.30
2022-10-22T00:05:35.442Z,6.60
2022-10-22T00:08:02.559Z,9.20
2022-10-22T00:10:29.558Z,6.27
2022-10-22T00:12:56.469Z,9.33
2022-10-22T00:15:23.536Z,7.17
2022-10-22T00:17:50.460Z,6.17
2022-10-22T00:20:17.527Z,9.37
2022-10-22T00:22:44.558Z,8.83
2022-10-22T00:25:11.529Z,11.97
2022-10-22T00:27:38.597Z,9.90
2022-10-22T00:30:06.129Z,8.03
2022-10-22T00:32:33.126Z,10.03
2022-10-22T00:35:00.133Z,9.87
2022-10-22T00:37:27.244Z,14.10
2022-10-22T00:39:54.192Z,10.60
2022-10-22T00:42:24.676Z,13.70
2022-10-22T00:45:06.238Z,12.60
2022-10-22T00:47:44.283Z,12.63
2022-10-22T00:50:35.325Z,9.60
2022-10-22T00:53:04.451Z,12.53
2022-10-22T00:55:33.038Z,12.50
2022-10-22T00:58:01.387Z,8.17
2022-10-22T01:00:28.635Z,9.20
2022-10-22T01:02:55.958Z,14.50
2022-10-22T01:05:26.317Z,9.47
2022-10-22T01:07:54.211Z,9.17
2022-10-22T01:10:46.398Z,10.80
2022-10-22T01:13:49.236Z,11.27
2022-10-22T01:16:43.100Z,11.70
2022-10-22T01:19:21.726Z,13.57
2022-10-22T01:21:58.989Z,15.27
2022-10-22T01:24:29.147Z,8.63
2022-10-22T01:27:22.339Z,14.87
2022-10-22T01:29:58.173Z,9.93
2022-10-22T01:32:27.004Z,12.63
2022-10-22T01:35:08.240Z,14.90
2022-10-22T01:37:58.303Z,13.53
2022-10-22T01:40:26.365Z,15.40
2022-10-22T01:43:01.422Z,10.03
2022-10-22T01:45:37.111Z,9.27
2022-10-22T01:48:04.780Z,12.47
2022-10-22T01:50:49.866Z,12.37
2022-10-22T01:53:53.173Z,12.43
2022-10-22T01:56:41.061Z,9.63
2022-10-22T01:59:34.707Z,16.53
2022-10-22T02:02:15.535Z,9.17
2022-10-22T02:04:55.696Z,8.30
2022-10-22T02:07:27.092Z,11.60
2022-10-22T02:09:56.271Z,11.60
2022-10-22T02:12:25.602Z,12.50
2022-10-22T02:14:54.715Z,7.77
2022-10-22T02:17:22.768Z,12.23
2022-10-22T02:20:03.536Z,21.17
2022-10-22T02:22:30.699Z,11.87
2022-10-22T02:24:57.710Z,8.70
2022-10-22T02:27:39.007Z,9.30
2022-10-22T02:30:09.912Z,11.63
2022-10-22T02:32:42.636Z,13.67
2022-10-22T02:35:13.848Z,12.03
2022-10-22T02:37:41.760Z,9.67
2022-10-22T02:40:09.691Z,9.00
2022-10-22T02:42:38.442Z,7.77
2022-10-22T02:45:06.302Z,11.50
2022-10-22T02:47:33.359Z,8.77
2022-10-22T02:50:00.529Z,10.90
2022-10-22T02:52:27.973Z,12.40
2022-10-22T02:54:54.858Z,9.23
2022-10-22T02:59:48.839Z,11.23
2022-10-22T03:02:16.574Z,9.03
2022-10-22T03:04:43.726Z,13.03
2022-10-22T03:07:10.711Z,7.33
2022-10-22T03:09:37.628Z,10.40
2022-10-22T03:12:05.053Z,8.20
2022-10-22T03:14:31.987Z,12.70
2022-10-22T03:16:58.931Z,8.20
2022-10-22T03:19:25.948Z,4.77
2022-10-22T03:22:06.302Z,5.23
2022-10-22T03:24:40.011Z,6.37
2022-10-22T03:27:07.053Z,6.73
2022-10-22T03:29:37.463Z,5.33
2022-10-22T03:32:04.595Z,8.27
2022-10-22T03:34:31.584Z,7.40
2022-10-22T03:37:00.102Z,2.80
2022-10-22T03:39:29.419Z,4.43
2022-10-22T03:41:56.810Z,4.33
2022-10-22T03:44:24.484Z,4.77
2022-10-22T03:46:51.739Z,6.47
2022-10-22T03:49:18.660Z,3.33
2022-10-22T03:51:45.655Z,3.30
2022-10-22T03:54:12.591Z,4.63
2022-10-22T03:56:39.658Z,1.77
2022-10-22T03:59:06.799Z,3.80
2022-10-22T04:01:33.785Z,3.73
2022-10-22T04:04:00.767Z,8.53
2022-10-22T04:06:30.136Z,2.23
2022-10-22T04:08:57.453Z,4.53
2022-10-22T04:11:24.598Z,3.20
2022-10-22T04:13:51.611Z,4.03
2022-10-22T04:16:21.485Z,8.43
2022-10-22T04:18:50.512Z,2.43
2022-10-22T04:21:19.173Z,5.63
2022-10-22T04:23:47.949Z,5.77
2022-10-22T04:26:16.045Z,6.57
2022-10-22T04:28:43.246Z,2.67
2022-10-22T04:31:25.378Z,2.83
2022-10-22T04:33:57.895Z,4.60
2022-10-22T04:36:25.854Z,7.10
2022-10-22T04:38:59.130Z,3.47
2022-10-22T04:41:29.114Z,2.97
2022-10-22T04:43:56.613Z,5.83
2022-10-22T04:46:24.616Z,3.37
2022-10-22T04:48:52.516Z,7.97
2022-10-22T04:51:21.235Z,5.17
2022-10-22T04:53:48.554Z,7.23
2022-10-22T04:56:19.894Z,10.77
2022-10-22T04:58:49.110Z,7.00
2022-10-22T05:01:36.941Z,6.90
2022-10-22T05:04:08.343Z,4.40
2022-10-22T05:06:37.284Z,6.43
2022-10-22T05:09:07.110Z,5.13
2022-10-22T05:11:36.399Z,6.97
2022-10-22T05:14:06.024Z,5.57
2022-10-22T05:16:33.912Z,9.97
2022-10-22T05:19:02.291Z,13.20
2022-10-22T05:21:29.824Z,5.67
2022-10-22T05:23:59.696Z,8.20
2022-10-22T05:26:27.479Z,6.13
2022-10-22T05:28:54.560Z,4.43
2022-10-22T05:31:21.668Z,6.77
2022-10-22T05:33:48.985Z,6.83
2022-10-22T05:36:19.943Z,4.07
2022-10-22T05:38:47.168Z,6.80
2022-10-22T05:41:22.564Z,5.73
2022-10-22T05:43:50.415Z,8.80
2022-10-22T05:46:22.530Z,7.17
2022-10-22T05:48:56.130Z,7.53
2022-10-22T05:51:24.488Z,6.90
2022-10-22T05:53:54.311Z,11.53
2022-10-22T05:56:21.917Z,8.60
2022-10-22T05:58:49.189Z,6.73
2022-10-22T06:01:33.155Z,6.43
2022-10-22T06:04:02.799Z,6.00
2022-10-22T06:06:47.626Z,8.57
2022-10-22T06:12:10.936Z,7.00
2022-10-22T06:14:37.975Z,9.97
2022-10-22T06:17:04.904Z,8.53
2022-10-22T06:19:31.821Z,6.30
2022-10-22T06:21:58.882Z,9.73
2022-10-22T06:24:25.759Z,11.83
2022-10-22T06:26:52.981Z,6.50
2022-10-22T06:29:20.026Z,8.07
2022-10-22T06:31:47.096Z,11.17
2022-10-22T06:34:14.744Z,7.40
2022-10-22T06:36:43.876Z,8.93
2022-10-22T06:39:12.915Z,7.43
2022-10-22T06:41:40.231Z,6.07
2022-10-22T06:44:07.298Z,8.47
2022-10-22T06:46:34.339Z,5.40
2022-10-22T06:49:03.142Z,6.50
2022-10-22T06:51:30.305Z,7.10
2022-10-22T06:53:58.210Z,5.53
2022-10-22T06:56:27.635Z,8.73
2022-10-22T06:58:56.189Z,6.60
2022-10-22T07:01:28.973Z,9.23
2022-10-22T07:03:56.383Z,7.13
2022-10-22T07:06:24.798Z,6.77
2022-10-22T07:08:53.446Z,6.77
2022-10-22T07:11:23.196Z,8.27
2022-10-22T07:13:51.470Z,7.60
2022-10-22T07:16:18.828Z,2.93
2022-10-22T07:18:46.564Z,5.97
2022-10-22T07:21:16.064Z,3.73
2022-10-22T07:23:43.073Z,4.27
2022-10-22T07:26:13.121Z,4.80
2022-10-22T07:28:41.153Z,4.83
2022-10-22T07:31:10.385Z,6.57
2022-10-22T07:33:37.767Z,5.07
2022-10-22T07:36:08.550Z,4.40
2022-10-22T07:38:36.123Z,8.70
2022-10-22T07:41:03.469Z,5.67
2022-10-22T07:43:30.374Z,6.27
2022-10-22T07:45:57.306Z,6.17
2022-10-22T07:48:24.630Z,5.80
2022-10-22T07:50:52.120Z,5.10
2022-10-22T07:53:21.229Z,5.00
2022-10-22T07:55:49.408Z,5.07
2022-10-22T07:58:17.493Z,8.27
2022-10-22T08:00:45.260Z,22.33
2022-10-22T08:03:13.724Z,15.33
2022-10-22T08:05:43.705Z,10.30
2022-10-22T08:08:15.192Z,8.27
2022-10-22T08:10:43.166Z,5.53
2022-10-22T08:13:10.642Z,9.80
2022-10-22T08:15:38.012Z,5.53
2022-10-22T08:18:05.445Z,2.73
2022-10-22T08:20:32.650Z,6.13
2022-10-22T08:22:59.582Z,1.77
2022-10-22T08:25:27.182Z,3.83
2022-10-22T08:27:54.206Z,3.83
2022-10-22T08:30:21.353Z,3.80
2022-10-22T08:32:50.500Z,2.47
2022-10-22T08:35:20.196Z,5.73
2022-10-22T08:37:47.048Z,4.20
2022-10-22T08:40:37.567Z,2.60
2022-10-22T08:43:41.916Z,1.80
2022-10-22T08:46:46.155Z,2.13
2022-10-22T08:49:39.718Z,2.43
2022-10-22T08:52:19.970Z,2.17
2022-10-22T08:54:52.766Z,1.70
2022-10-22T08:57:49.910Z,4.97
2022-10-22T09:00:30.723Z,3.17
2022-10-22T09:03:17.044Z,1.33
2022-10-22T09:05:46.898Z,5.23
2022-10-22T09:08:17.178Z,1.97
2022-10-22T09:10:53.508Z,3.87
2022-10-22T09:13:22.565Z,1.07
2022-10-22T09:16:06.008Z,1.63
2022-10-22T09:18:39.183Z,1.43
2022-10-22T09:21:34.551Z,3.33
2022-10-22T09:24:16.630Z,2.57
2022-10-22T09:26:43.667Z,2.40
2022-10-22T09:29:25.220Z,4.70
2022-10-22T09:31:52.272Z,2.30
2022-10-22T09:34:22.082Z,2.23
2022-10-22T16:23:19.074Z,12.65
2022-10-22T16:38:11.101Z,7.85
